createdAt,value
2019-05-14T00:02:12.166Z,48.60
2019-05-14T00:04:42.291Z,48.50
2019-05-14T00:07:11.581Z,48.60
2019-05-14T00:09:41.360Z,48.60
2019-05-14T00:12:11.372Z,48.60
2019-05-14T00:14:43.368Z,48.60
2019-05-14T00:17:11.300Z,48.60
2019-05-14T00:19:41.695Z,48.70
2019-05-14T00:22:12.018Z,48.40
2019-05-14T00:24:41.626Z,48.20
2019-05-14T00:27:11.427Z,48.30
2019-05-14T00:29:41.674Z,48.30
2019-05-14T00:32:11.266Z,48.60
2019-05-14T00:34:42.172Z,48.50
2019-05-14T00:37:11.445Z,48.40
2019-05-14T00:39:41.550Z,48.40
2019-05-14T00:42:12.499Z,48.40
2019-05-14T00:44:53.618Z,48.50
2019-05-14T00:47:11.399Z,48.50
2019-05-14T00:49:42.236Z,48.50
2019-05-14T00:52:11.723Z,48.70
2019-05-14T00:54:41.632Z,48.70
2019-05-14T00:57:11.942Z,48.60
2019-05-14T00:59:41.689Z,48.40
2019-05-14T01:02:11.458Z,48.50
2019-05-14T01:04:42.560Z,48.50
2019-05-14T01:07:11.893Z,48.60
2019-05-14T01:09:42.197Z,48.60
2019-05-14T01:12:12.128Z,49.20
2019-05-14T01:14:42.269Z,48.60
2019-05-14T01:17:11.314Z,48.60
2019-05-14T01:19:42.220Z,48.60
2019-05-14T01:22:12.513Z,48.80
2019-05-14T01:24:41.651Z,48.70
2019-05-14T01:27:12.359Z,48.70
2019-05-14T01:29:42.477Z,48.60
2019-05-14T01:32:11.640Z,48.70
2019-05-14T01:34:41.984Z,48.70
2019-05-14T01:37:11.753Z,48.70
2019-05-14T01:39:41.888Z,48.60
2019-05-14T01:42:12.525Z,48.70
2019-05-14T01:44:41.429Z,48.70
2019-05-14T01:47:12.427Z,48.70
2019-05-14T01:49:42.514Z,48.70
2019-05-14T01:52:11.315Z,48.60
2019-05-14T01:54:42.467Z,48.60
2019-05-14T01:57:11.580Z,48.60
2019-05-14T01:59:42.617Z,48.60
2019-05-14T02:02:11.586Z,48.60
2019-05-14T02:04:42.708Z,48.80
2019-05-14T02:07:11.538Z,48.70
2019-05-14T02:09:42.032Z,48.70
2019-05-14T02:12:11.686Z,48.70
2019-05-14T02:14:42.510Z,48.80
2019-05-14T02:17:12.486Z,48.80
2019-05-14T02:19:42.480Z,48.80
2019-05-14T02:22:11.472Z,48.80
2019-05-14T02:24:41.794Z,48.80
2019-05-14T02:27:12.289Z,48.80
2019-05-14T02:29:41.573Z,48.80
2019-05-14T02:32:10.971Z,48.80
2019-05-14T02:34:40.249Z,48.80
2019-05-14T02:37:09.406Z,48.90
2019-05-14T02:39:40.608Z,48.90
2019-05-14T02:42:09.498Z,48.90
2019-05-14T02:44:40.815Z,48.90
2019-05-14T02:47:09.842Z,48.90
2019-05-14T02:49:39.916Z,48.90
2019-05-14T02:52:10.044Z,49.00
2019-05-14T02:54:40.485Z,48.90
2019-05-14T02:57:10.429Z,49.00
2019-05-14T02:59:39.624Z,49.00
2019-05-14T03:02:10.048Z,48.90
2019-05-14T03:04:39.554Z,49.00
2019-05-14T03:07:10.788Z,48.90
2019-05-14T03:09:40.234Z,48.90
2019-05-14T03:12:10.029Z,48.90
2019-05-14T03:14:39.912Z,48.90
2019-05-14T03:17:10.324Z,49.00
2019-05-14T03:19:40.607Z,49.00
2019-05-14T03:22:10.094Z,49.00
2019-05-14T03:24:39.813Z,49.00
2019-05-14T03:27:09.661Z,49.00
2019-05-14T03:29:39.961Z,49.20
2019-05-14T03:32:13.256Z,49.30
2019-05-14T03:34:43.085Z,49.50
2019-05-14T03:37:13.225Z,49.50
2019-05-14T03:39:39.648Z,49.50
2019-05-14T03:42:09.590Z,49.50
2019-05-14T03:44:39.959Z,49.50
2019-05-14T03:47:10.205Z,49.50
2019-05-14T03:49:39.770Z,49.50
2019-05-14T03:52:09.750Z,49.50
2019-05-14T03:54:40.704Z,49.50
2019-05-14T03:57:09.620Z,49.50
2019-05-14T03:59:40.147Z,49.50
2019-05-14T04:02:09.803Z,49.60
2019-05-14T04:04:39.413Z,49.70
2019-05-14T04:07:09.624Z,49.60
2019-05-14T04:09:39.982Z,49.50
2019-05-14T04:12:10.040Z,50.70
2019-05-14T04:14:39.835Z,50.10
2019-05-14T04:17:14.378Z,50.00
2019-05-14T04:19:39.659Z,49.90
2019-05-14T04:22:10.116Z,49.90
2019-05-14T04:24:41.522Z,50.10
2019-05-14T04:27:13.045Z,49.70
2019-05-14T04:29:41.336Z,49.50
2019-05-14T04:32:11.430Z,49.40
2019-05-14T04:34:40.123Z,49.60
2019-05-14T04:37:09.925Z,49.70
2019-05-14T04:39:39.543Z,49.70
2019-05-14T04:42:09.675Z,49.80
2019-05-14T04:44:40.493Z,49.70
2019-05-14T04:47:22.550Z,49.70
2019-05-14T04:49:39.903Z,49.90
2019-05-14T04:52:10.064Z,49.60
2019-05-14T04:54:39.535Z,49.60
2019-05-14T04:57:10.201Z,49.70
2019-05-14T04:59:39.635Z,50.00
2019-05-14T05:02:09.477Z,50.00
2019-05-14T05:04:41.022Z,49.90
2019-05-14T05:07:09.961Z,49.90
2019-05-14T05:09:40.091Z,49.90
2019-05-14T05:12:09.251Z,50.00
2019-05-14T05:14:38.931Z,50.00
2019-05-14T05:17:09.302Z,49.90
2019-05-14T05:19:39.808Z,49.80
2019-05-14T05:22:08.675Z,49.50
2019-05-14T05:24:38.107Z,49.50
2019-05-14T05:27:09.096Z,49.90
2019-05-14T05:29:39.045Z,49.60
2019-05-14T05:32:08.676Z,49.70
2019-05-14T05:34:48.282Z,49.70
2019-05-14T05:37:18.975Z,49.70
2019-05-14T05:39:49.126Z,50.10
2019-05-14T05:42:21.155Z,49.70
2019-05-14T05:44:51.507Z,49.80
2019-05-14T05:47:24.415Z,49.70
2019-05-14T05:49:58.177Z,49.80
2019-05-14T05:52:32.630Z,49.80
2019-05-14T05:55:02.001Z,49.80
2019-05-14T05:57:31.543Z,49.90
2019-05-14T06:00:01.558Z,49.70
2019-05-14T06:02:31.219Z,49.80
2019-05-14T06:05:04.007Z,49.80
2019-05-14T06:07:33.988Z,49.70
2019-05-14T06:10:33.731Z,49.50
2019-05-14T06:13:02.959Z,49.60
2019-05-14T06:15:44.506Z,49.60
2019-05-14T06:18:17.090Z,49.60
2019-05-14T06:20:39.264Z,49.50
2019-05-14T06:23:08.655Z,49.50
2019-05-14T06:25:40.185Z,49.70
2019-05-14T06:28:10.202Z,49.70
2019-05-14T06:30:41.581Z,49.70
2019-05-14T06:33:11.739Z,49.80
2019-05-14T06:35:42.429Z,49.80
2019-05-14T06:38:12.237Z,49.80
2019-05-14T06:40:41.946Z,49.70
2019-05-14T06:43:12.603Z,50.40
2019-05-14T06:45:41.346Z,49.70
2019-05-14T06:48:10.471Z,49.70
2019-05-14T06:50:40.233Z,49.70
2019-05-14T06:53:13.661Z,49.60
2019-05-14T06:55:43.918Z,49.60
2019-05-14T06:58:12.255Z,49.50
2019-05-14T07:00:40.559Z,49.60
2019-05-14T07:03:09.049Z,49.70
2019-05-14T07:05:38.950Z,49.40
2019-05-14T07:08:09.002Z,49.40
2019-05-14T07:10:39.469Z,49.40
2019-05-14T07:13:08.598Z,49.40
2019-05-14T07:15:38.685Z,49.50
2019-05-14T07:18:08.617Z,49.50
2019-05-14T07:20:39.376Z,49.80
2019-05-14T07:23:08.311Z,49.60
2019-05-14T07:25:39.113Z,49.80
2019-05-14T07:28:08.724Z,49.70
2019-05-14T07:30:39.388Z,49.60
2019-05-14T07:33:09.250Z,49.60
2019-05-14T07:35:38.223Z,49.20
2019-05-14T07:38:08.970Z,49.60
2019-05-14T07:40:38.824Z,49.70
2019-05-14T07:43:08.998Z,50.80
2019-05-14T07:45:38.584Z,50.30
2019-05-14T07:48:09.122Z,50.20
2019-05-14T07:50:39.594Z,50.20
2019-05-14T07:53:09.001Z,50.30
2019-05-14T07:55:38.528Z,50.20
2019-05-14T07:58:08.352Z,50.70
2019-05-14T08:00:39.966Z,50.30
2019-05-14T08:03:08.200Z,50.30
2019-05-14T08:05:38.944Z,50.00
2019-05-14T08:08:08.042Z,50.00
2019-05-14T08:10:39.049Z,50.00
2019-05-14T08:13:08.438Z,50.00
2019-05-14T08:15:38.705Z,49.70
2019-05-14T08:18:08.089Z,49.80
2019-05-14T08:20:38.005Z,49.60
2019-05-14T08:23:08.766Z,49.50
2019-05-14T08:25:38.925Z,49.60
2019-05-14T08:28:08.087Z,49.50
2019-05-14T08:30:38.977Z,49.40
2019-05-14T08:33:08.938Z,49.00
2019-05-14T08:35:39.277Z,49.00
2019-05-14T08:38:11.389Z,48.90
2019-05-14T08:40:38.255Z,48.80
2019-05-14T08:43:08.610Z,48.80
2019-05-14T08:45:38.783Z,48.90
2019-05-14T08:48:09.171Z,48.80
2019-05-14T08:50:38.788Z,48.90
2019-05-14T08:53:09.127Z,48.90
2019-05-14T08:55:38.228Z,48.80
2019-05-14T08:58:13.372Z,48.90
2019-05-14T09:00:38.711Z,48.90
2019-05-14T09:03:08.517Z,48.90
2019-05-14T09:05:38.620Z,48.50
2019-05-14T09:08:08.889Z,47.00
2019-05-14T09:10:40.009Z,46.10
2019-05-14T09:13:08.617Z,46.20
2019-05-14T09:15:38.505Z,46.50
2019-05-14T09:18:11.479Z,46.80
2019-05-14T09:20:38.164Z,46.80
2019-05-14T09:23:09.107Z,46.90
2019-05-14T09:25:45.456Z,46.90
2019-05-14T09:28:09.059Z,46.90
2019-05-14T09:30:38.133Z,47.10
2019-05-14T09:33:08.633Z,46.90
2019-05-14T09:35:38.695Z,47.00
2019-05-14T09:38:08.682Z,46.90
2019-05-14T09:40:39.480Z,46.60
2019-05-14T09:43:09.166Z,45.30
2019-05-14T09:45:38.771Z,43.80
2019-05-14T09:48:08.842Z,44.20
2019-05-14T09:50:38.307Z,44.40
2019-05-14T09:53:09.661Z,44.30
2019-05-14T09:55:38.864Z,44.50
2019-05-14T09:58:08.151Z,44.40
2019-05-14T10:00:38.980Z,44.60
2019-05-14T10:03:09.620Z,44.70
2019-05-14T10:05:37.345Z,44.80
2019-05-14T10:08:05.632Z,44.90
2019-05-14T10:10:34.280Z,44.90
2019-05-14T10:13:02.687Z,45.00
2019-05-14T10:15:31.295Z,45.30
2019-05-14T10:18:00.569Z,45.30
2019-05-14T10:20:39.553Z,45.50
2019-05-14T10:22:59.776Z,45.60
2019-05-14T10:25:32.479Z,45.50
2019-05-14T10:28:01.148Z,45.60
2019-05-14T10:30:29.463Z,45.70
2019-05-14T10:33:07.125Z,45.80
2019-05-14T10:35:28.572Z,45.90
2019-05-14T10:37:59.811Z,45.90
2019-05-14T10:40:29.239Z,45.80
2019-05-14T10:42:57.467Z,46.00
2019-05-14T10:45:25.782Z,46.00
2019-05-14T10:47:54.404Z,46.00
2019-05-14T10:50:23.003Z,46.00
2019-05-14T10:52:51.357Z,45.90
2019-05-14T10:55:19.951Z,46.10
2019-05-14T10:57:53.922Z,46.00
2019-05-14T11:00:18.770Z,45.90
2019-05-14T11:02:49.191Z,45.90
2019-05-14T11:05:18.751Z,45.90
2019-05-14T11:07:48.260Z,45.90
2019-05-14T11:10:19.446Z,45.80
2019-05-14T11:12:50.118Z,46.00
2019-05-14T11:15:19.137Z,46.00
2019-05-14T11:17:48.744Z,46.00
2019-05-14T11:20:19.234Z,46.00
2019-05-14T11:22:49.054Z,46.10
2019-05-14T11:25:19.612Z,45.40
2019-05-14T11:27:49.328Z,43.90
2019-05-14T11:30:19.317Z,43.10
2019-05-14T11:32:49.257Z,41.90
2019-05-14T11:35:19.221Z,41.20
2019-05-14T11:37:48.198Z,39.60
2019-05-14T11:40:18.934Z,39.90
2019-05-14T11:42:49.534Z,40.90
2019-05-14T11:45:17.583Z,40.60
2019-05-14T11:47:45.867Z,40.20
2019-05-14T11:50:14.176Z,40.00
2019-05-14T11:52:42.454Z,39.30
2019-05-14T11:55:11.049Z,37.80
2019-05-14T11:57:39.322Z,38.50
2019-05-14T12:00:08.664Z,37.90
2019-05-14T12:02:38.559Z,37.20
2019-05-14T12:05:08.818Z,37.30
2019-05-14T12:07:38.935Z,37.70
2019-05-14T12:10:09.018Z,37.60
2019-05-14T12:12:37.918Z,38.30
2019-05-14T12:15:08.893Z,38.40
2019-05-14T12:17:39.474Z,37.90
2019-05-14T12:20:07.743Z,38.00
2019-05-14T12:22:36.036Z,37.10
2019-05-14T12:25:08.029Z,36.80
2019-05-14T12:27:38.511Z,37.10
2019-05-14T12:30:10.288Z,37.10
2019-05-14T12:32:39.653Z,37.10
2019-05-14T12:35:08.644Z,37.10
2019-05-14T12:37:38.804Z,36.70
2019-05-14T12:40:08.849Z,36.90
2019-05-14T12:42:39.221Z,36.60
2019-05-14T12:45:10.069Z,36.70
2019-05-14T12:47:38.555Z,37.10
2019-05-14T12:50:09.374Z,37.10
2019-05-14T12:52:39.339Z,36.80
2019-05-14T12:55:09.100Z,37.10
2019-05-14T12:57:39.366Z,38.20
2019-05-14T13:00:08.923Z,38.50
2019-05-14T13:02:37.736Z,37.60
2019-05-14T13:05:08.964Z,37.70
2019-05-14T13:07:41.507Z,38.30
2019-05-14T13:10:09.064Z,37.60
2019-05-14T13:12:39.032Z,37.80
2019-05-14T13:15:08.725Z,37.60
2019-05-14T13:17:38.974Z,37.40
2019-05-14T13:20:13.120Z,37.10
2019-05-14T13:22:45.342Z,37.10
2019-05-14T13:25:09.952Z,37.60
2019-05-14T13:27:39.108Z,37.00
2019-05-14T13:30:09.131Z,37.60
2019-05-14T13:32:39.382Z,37.70
2019-05-14T13:35:13.585Z,37.00
2019-05-14T13:37:40.193Z,37.70
2019-05-14T13:40:09.179Z,37.80
2019-05-14T13:42:39.529Z,37.20
2019-05-14T13:45:10.315Z,36.90
2019-05-14T13:47:38.853Z,36.70
2019-05-14T13:50:08.578Z,37.00
2019-05-14T13:52:39.006Z,36.30
2019-05-14T13:55:09.845Z,36.80
2019-05-14T13:57:39.826Z,37.10
2019-05-14T14:00:11.702Z,36.80
2019-05-14T14:02:37.647Z,37.00
2019-05-14T14:05:09.121Z,36.80
2019-05-14T14:07:39.537Z,37.00
2019-05-14T14:10:09.258Z,37.00
2019-05-14T14:12:40.466Z,37.20
2019-05-14T14:15:09.924Z,36.60
2019-05-14T14:17:39.398Z,36.10
2019-05-14T14:20:08.364Z,36.00
2019-05-14T14:22:39.464Z,36.30
2019-05-14T14:25:09.043Z,35.90
2019-05-14T14:27:40.651Z,35.80
2019-05-14T14:30:09.366Z,35.70
2019-05-14T14:32:49.532Z,35.90
2019-05-14T14:35:23.709Z,36.10
2019-05-14T14:37:49.323Z,36.10
2019-05-14T14:40:22.078Z,36.20
2019-05-14T14:42:49.219Z,36.90
2019-05-14T14:45:21.496Z,36.90
2019-05-14T14:47:49.761Z,37.50
2019-05-14T14:50:19.381Z,37.10
2019-05-14T14:52:49.499Z,37.30
2019-05-14T14:55:19.349Z,37.10
2019-05-14T14:57:53.746Z,36.70
2019-05-14T15:00:19.405Z,37.20
2019-05-14T15:02:49.525Z,36.80
2019-05-14T15:05:20.018Z,37.10
2019-05-14T15:07:49.810Z,36.70
2019-05-14T15:10:19.306Z,36.30
2019-05-14T15:15:40.914Z,36.70
2019-05-14T15:18:10.068Z,36.80
2019-05-14T15:20:39.616Z,36.80
2019-05-14T15:23:09.777Z,36.80
2019-05-14T15:25:38.705Z,36.80
2019-05-14T15:28:09.406Z,37.60
2019-05-14T15:30:39.586Z,36.80
2019-05-14T15:33:09.204Z,36.80
2019-05-14T15:35:37.985Z,37.40
2019-05-14T15:38:11.101Z,36.80
2019-05-14T15:40:39.798Z,36.80
2019-05-14T15:43:09.654Z,36.70
2019-05-14T15:45:37.908Z,36.10
2019-05-14T15:48:08.984Z,35.90
2019-05-14T15:50:39.060Z,36.40
2019-05-14T15:53:10.812Z,36.20
2019-05-14T15:55:39.315Z,35.90
2019-05-14T15:58:08.709Z,36.10
2019-05-14T16:00:38.584Z,36.30
2019-05-14T16:03:08.713Z,36.50
2019-05-14T16:05:39.442Z,36.30
2019-05-14T16:08:07.997Z,36.60
2019-05-14T16:10:36.416Z,37.10
2019-05-14T16:13:04.695Z,36.80
2019-05-14T16:15:32.997Z,37.30
2019-05-14T16:18:10.470Z,36.90
2019-05-14T16:20:31.381Z,38.30
2019-05-14T16:22:59.679Z,37.70
2019-05-14T16:25:28.676Z,38.30
2019-05-14T16:27:59.367Z,38.50
2019-05-14T16:30:28.829Z,38.40
2019-05-14T16:32:59.779Z,38.60
2019-05-14T16:35:28.578Z,38.40
2019-05-14T16:37:59.047Z,38.80
2019-05-14T16:40:28.811Z,39.20
2019-05-14T16:42:59.177Z,39.50
2019-05-14T16:45:28.936Z,39.60
2019-05-14T16:47:59.372Z,39.80
2019-05-14T16:50:28.647Z,40.10
2019-05-14T16:52:58.979Z,40.70
2019-05-14T16:55:30.716Z,41.50
2019-05-14T16:57:58.306Z,41.40
2019-05-14T17:00:29.153Z,41.90
2019-05-14T17:02:58.967Z,42.10
2019-05-14T17:05:29.948Z,43.00
2019-05-14T17:07:58.714Z,43.20
2019-05-14T17:10:28.601Z,43.70
2019-05-14T17:13:01.087Z,45.90
2019-05-14T17:15:28.858Z,47.00
2019-05-14T17:17:59.650Z,48.10
2019-05-14T17:20:27.536Z,47.80
2019-05-14T17:22:56.165Z,47.80
2019-05-14T17:25:27.210Z,47.50
2019-05-14T17:27:54.827Z,47.10
2019-05-14T17:30:23.407Z,46.70
2019-05-14T17:32:51.996Z,46.90
2019-05-14T17:35:20.294Z,46.50
2019-05-14T17:37:48.683Z,46.00
2019-05-14T17:40:17.251Z,45.90
2019-05-14T17:42:48.562Z,45.90
2019-05-14T17:45:16.063Z,46.10
2019-05-14T17:47:44.725Z,45.90
2019-05-14T17:50:13.040Z,45.90
2019-05-14T17:52:44.377Z,45.90
2019-05-14T17:55:12.430Z,45.90
2019-05-14T17:57:48.261Z,45.90
2019-05-14T18:00:11.740Z,45.90
2019-05-14T18:02:40.362Z,45.90
2019-05-14T18:05:09.674Z,45.90
2019-05-14T18:07:38.573Z,46.10
2019-05-14T18:10:08.816Z,46.00
2019-05-14T18:12:39.637Z,46.10
2019-05-14T18:15:08.591Z,46.20
2019-05-14T18:17:39.203Z,46.00
2019-05-14T18:20:08.406Z,45.90
2019-05-14T18:22:42.203Z,45.90
2019-05-14T18:25:07.135Z,46.00
2019-05-14T18:27:35.430Z,45.90
2019-05-14T18:30:05.041Z,45.90
2019-05-14T18:32:33.707Z,46.00
2019-05-14T18:35:02.429Z,46.10
2019-05-14T18:37:30.892Z,45.90
2019-05-14T18:39:59.208Z,46.10
2019-05-14T18:42:29.755Z,45.90
2019-05-14T18:44:59.046Z,45.90
2019-05-14T18:47:29.044Z,45.90
2019-05-14T18:49:59.480Z,46.10
2019-05-14T18:52:29.740Z,46.20
2019-05-14T18:54:59.200Z,46.20
2019-05-14T18:57:28.640Z,46.30
2019-05-14T18:59:57.423Z,45.80
2019-05-14T19:02:29.127Z,46.40
2019-05-14T19:04:57.896Z,46.40
2019-05-14T19:07:28.779Z,46.60
2019-05-14T19:09:58.684Z,46.40
2019-05-14T19:12:28.995Z,46.10
2019-05-14T19:14:58.944Z,46.00
2019-05-14T19:17:28.343Z,46.50
2019-05-14T19:19:58.951Z,46.50
2019-05-14T19:22:28.774Z,46.50
2019-05-14T19:24:58.690Z,46.40
2019-05-14T19:27:28.624Z,46.50
2019-05-14T19:29:59.523Z,45.90
2019-05-14T19:32:28.307Z,45.90
2019-05-14T19:34:57.152Z,45.90
2019-05-14T19:37:25.492Z,46.20
2019-05-14T19:39:54.115Z,46.10
2019-05-14T19:42:22.688Z,46.30
2019-05-14T19:44:51.323Z,46.30
2019-05-14T19:47:19.887Z,46.40
2019-05-14T19:49:49.158Z,46.40
2019-05-14T19:52:17.706Z,46.30
2019-05-14T19:54:48.742Z,46.30
2019-05-14T19:57:18.507Z,46.30
2019-05-14T19:59:49.102Z,46.10
2019-05-14T20:02:18.421Z,46.00
2019-05-14T20:04:47.232Z,46.20
2019-05-14T20:07:17.944Z,46.10
2019-05-14T20:09:48.139Z,46.10
2019-05-14T20:12:18.154Z,46.40
2019-05-14T20:14:48.832Z,46.50
2019-05-14T20:17:19.207Z,46.40
2019-05-14T20:19:49.241Z,46.50
2019-05-14T20:22:19.088Z,46.70
2019-05-14T20:24:48.411Z,46.70
2019-05-14T20:27:17.162Z,46.80
2019-05-14T20:29:45.763Z,46.90
2019-05-14T20:32:14.138Z,46.90
2019-05-14T20:34:42.710Z,47.00
2019-05-14T20:37:11.292Z,46.90
2019-05-14T20:39:39.630Z,46.90
2019-05-14T20:42:09.147Z,47.00
2019-05-14T20:44:38.629Z,46.90
2019-05-14T20:47:09.119Z,46.90
2019-05-14T20:49:38.031Z,46.90
2019-05-14T20:52:08.605Z,46.90
2019-05-14T20:54:36.592Z,47.10
2019-05-14T20:57:19.715Z,46.90
2019-05-14T20:59:38.737Z,46.70
2019-05-14T21:02:08.454Z,46.70
2019-05-14T21:04:36.820Z,46.80
2019-05-14T21:07:05.234Z,46.90
2019-05-14T21:09:33.628Z,47.00
2019-05-14T21:12:02.042Z,47.00
2019-05-14T21:14:30.722Z,47.10
2019-05-14T21:16:59.410Z,47.10
2019-05-14T21:19:28.383Z,47.30
2019-05-14T21:21:58.194Z,47.30
2019-05-14T21:24:29.423Z,47.20
2019-05-14T21:26:58.321Z,47.10
2019-05-14T21:29:30.331Z,47.10
2019-05-14T21:32:01.371Z,47.10
2019-05-14T21:34:28.209Z,47.20
2019-05-14T21:36:58.514Z,47.30
2019-05-14T21:39:27.067Z,47.40
2019-05-14T21:41:55.569Z,47.30
2019-05-14T21:44:23.970Z,47.30
2019-05-14T21:46:52.654Z,47.30
2019-05-14T21:49:23.864Z,47.30
2019-05-14T21:51:52.202Z,47.40
2019-05-14T21:54:20.645Z,48.00
2019-05-14T21:56:49.574Z,47.40
2019-05-14T21:59:18.986Z,47.60
2019-05-14T22:01:48.514Z,47.50
2019-05-14T22:04:18.613Z,47.50
2019-05-14T22:06:48.995Z,47.50
2019-05-14T22:09:17.486Z,47.50
2019-05-14T22:11:45.880Z,47.60
2019-05-14T22:14:14.290Z,47.60
2019-05-14T22:16:43.160Z,47.60
2019-05-14T22:19:11.587Z,47.40
2019-05-14T22:21:41.908Z,47.50
2019-05-14T22:24:10.522Z,47.30
2019-05-14T22:26:39.022Z,47.40
2019-05-14T22:29:08.357Z,47.40
2019-05-14T22:31:38.735Z,47.70
2019-05-14T22:34:08.911Z,47.80
2019-05-14T22:36:38.704Z,47.80
2019-05-14T22:39:07.667Z,48.10
2019-05-14T22:41:38.066Z,48.30
2019-05-14T22:44:06.457Z,48.30
2019-05-14T22:46:34.846Z,48.20
2019-05-14T22:49:03.545Z,48.30
2019-05-14T22:51:33.282Z,48.30
2019-05-14T22:54:02.128Z,48.30
2019-05-14T22:56:30.442Z,48.20
2019-05-14T22:58:58.952Z,48.30
2019-05-14T23:01:28.823Z,48.20
2019-05-14T23:03:59.633Z,47.90
2019-05-14T23:06:28.212Z,48.80
2019-05-14T23:08:58.156Z,48.30
2019-05-14T23:11:28.795Z,48.40
2019-05-14T23:13:58.227Z,48.40
2019-05-14T23:16:36.366Z,48.40
2019-05-14T23:18:58.324Z,48.30
2019-05-14T23:21:28.346Z,48.30
2019-05-14T23:23:58.236Z,48.30
2019-05-14T23:26:28.576Z,48.20
2019-05-14T23:28:58.720Z,48.00
2019-05-14T23:31:28.809Z,48.00
2019-05-14T23:33:58.563Z,48.00
2019-05-14T23:36:29.175Z,47.90
2019-05-14T23:38:59.142Z,47.80
2019-05-14T23:41:32.074Z,47.30
2019-05-14T23:44:00.432Z,46.90
2019-05-14T23:46:29.346Z,46.90
2019-05-14T23:48:59.261Z,47.00
2019-05-14T23:51:29.023Z,47.20
2019-05-14T23:53:57.851Z,47.40
2019-05-14T23:56:28.633Z,47.40
2019-05-14T23:59:01.365Z,47.40
